Pomerene, AZ (85627)

1:38 AM MST on July 05, 2015 (GMT -0700)
Cascabel | | Change Station
CLOSE
Current Station
Personal Weather Station
Location: Benson, AZ
Elevation: 3212 ft
Nearby Weather Stations

Elev 3212 ft 32.29 °N, 110.37 °W | Updated 5 minutes ago

Mostly Cloudy
Mostly Cloudy
71.0 °F
Feels Like 71.0 °F
N
0.0
Wind Variable Wind from SE
Gusts 0.0 mph

Today
High -- | Low -- °F
--% Chance of Precip.
Yesterday
High -- | Low -- °F
Precip. -- in
5:19 AM 7:31 PM
Waning Gibbous, 86% visible
Pressure 29.82 in
Visibility 10.0 miles
Clouds Scattered Clouds 12000 ft
Dew Point 68 °F
Humidity 90%
Rainfall 0.00 in
Snow Depth Not available.
UV 0 out of 12
Pollen 3.60 out of 12
Air Quality Not available.
Flu Activity Not available.
METAR KDMA 050758Z AUTO 23005KT 10SM SCT120 28/15 A2996 RMK AO2 SLP097 T02810151 $

More Conditions Fewer Conditions

Pressure 29.82 in
Visibility 10.0 miles
Clouds Scattered Clouds 12000 ft
Dew Point 68 °F
Humidity 90%
Rainfall 0.00 in
Snow Depth Not available.
UV 0 out of 12
Pollen 3.60 out of 12
Air Quality Not available.
Flu Activity Not available.
METAR KDMA 050758Z AUTO 23005KT 10SM SCT120 28/15 A2996 RMK AO2 SLP097 T02810151 $

More Conditions Fewer Conditions

Nowcast | as of 1:22 am MST on July 5, 2015

Scattered showers and isolated thunderstorms will continue across Cochise County and southern Graham County through 3 am. Brief moderate rain...with rainfall amounts up to a quarter of an inch per hour...and wind gusts to 30 mph will accompany some of the storms.

×

10-Day Weather Forecast

×

Almanac

Astronomy

Jul. 05, 2015 Rise Set
Actual Time
Civil Twilight
Nautical Twilight
Astronomical Twilight
Moon
Length of Visible Light
Length of Day
Tomorrow will be .
, % of the Moon is Illuminated

Today's Extremes

State Highs State Lows

Community

WunderPhotos

Upload Photos

1,835,218 photos uploaded!

WunderBlogs® & News

Nearby

Air Quality

  Air Quality AQ Index Pollutant
Not available.

Snow Depth

Station Depth Elevation

Earthquake Activity

City Distance Mag. Time & Date
Minimum magnitude displayed is 2.5.

Coastal Water Temperatures

Place Temperature

Stations

Nearby Weather Stations

Station Location Temp. Windchill Dew Point Humidity Wind Precip. Elev Updated Type